Time;durP1;ratioP1;P1;durP2;ratioP2;P2;SDS_P1;SDS_P2;PMS_P1;PMS_P2;Temp;Humidity;BMP_temperature;BMP_pressure;BME280_temperature;BME280_humidity;BME280_pressure;Samples;Min_cycle;Max_cycle;Signal;HPM_P1;HPM_P2
2022/02/25 00:02:20;;;;;;;4.90;1.40;;;;;;;;;;5013806;28;20717;-68
2022/02/25 00:04:45;;;;;;;6.37;2.03;;;;;;;;;;4989678;28;21016;-69
2022/02/25 00:07:10;;;;;;;4.40;1.47;;;;;;;;;;5007052;28;20184;-69
2022/02/25 00:09:35;;;;;;;10.00;3.40;;;;;;;;;;5009101;28;20215;-68
2022/02/25 00:12:00;;;;;;;3.73;1.30;;;;;;;;;;5005768;28;20190;-69
2022/02/25 00:14:25;;;;;;;4.57;1.53;;;;;;;;;;5005045;28;20179;-68
2022/02/25 00:16:51;;;;;;;6.77;1.13;;;;;;;;;;5005467;28;20217;-68
2022/02/25 00:19:16;;;;;;;4.43;1.43;;;;;;;;;;4999494;28;20178;-68
2022/02/25 00:21:42;;;;;;;4.37;1.03;;;;;;;;;;5004787;28;20643;-68
2022/02/25 00:24:08;;;;;;;8.13;1.40;;;;;;;;;;5011872;28;20178;-71
2022/02/25 00:26:33;;;;;;;11.73;2.70;;;;;;;;;;5008892;28;20191;-68
2022/02/25 00:28:58;;;;;;;9.20;2.07;;;;;;;;;;5004271;28;20170;-68
2022/02/25 00:31:23;;;;;;;8.57;1.40;;;;;;;;;;5005032;28;20676;-70
2022/02/25 00:33:48;;;;;;;5.53;1.33;;;;;;;;;;5004967;28;20186;-71
2022/02/25 00:36:14;;;;;;;5.20;1.20;;;;;;;;;;4991278;28;20671;-70
2022/02/25 00:38:39;;;;;;;6.40;1.97;;;;;;;;;;5024796;28;20166;-68
2022/02/25 00:41:04;;;;;;;10.17;2.13;;;;;;;;;;5029113;28;20574;-70
2022/02/25 00:43:29;;;;;;;7.80;1.47;;;;;;;;;;5024721;28;20181;-70
2022/02/25 00:45:54;;;;;;;7.60;1.30;;;;;;;;;;5030669;28;20249;-70
2022/02/25 00:48:20;;;;;;;8.57;2.80;;;;;;;;;;5015450;28;20185;-71
2022/02/25 00:50:45;;;;;;;9.00;2.63;;;;;;;;;;5022135;28;20511;-71
2022/02/25 00:53:10;;;;;;;4.90;1.40;;;;;;;;;;5024766;28;20263;-70
2022/02/25 00:55:35;;;;;;;11.63;2.27;;;;;;;;;;5021610;28;20597;-70
2022/02/25 00:58:01;;;;;;;6.50;1.67;;;;;;;;;;5022504;28;20178;-71
2022/02/25 01:00:26;;;;;;;7.20;1.73;;;;;;;;;;5011307;28;20210;-69
2022/02/25 01:02:52;;;;;;;4.90;1.50;;;;;;;;;;5027030;28;20174;-69
2022/02/25 01:05:17;;;;;;;9.13;1.90;;;;;;;;;;5025767;28;20183;-70
2022/02/25 01:07:44;;;;;;;9.70;2.10;;;;;;;;;;5030023;28;20220;-69
2022/02/25 01:10:10;;;;;;;7.17;2.60;;;;;;;;;;5028892;28;20217;-70
2022/02/25 01:12:36;;;;;;;17.73;2.23;;;;;;;;;;5024893;28;20198;-70
2022/02/25 01:15:01;;;;;;;15.23;2.50;;;;;;;;;;5023771;28;20178;-69
2022/02/25 01:17:29;;;;;;;9.83;2.00;;;;;;;;;;5021617;28;20185;-70
2022/02/25 01:19:54;;;;;;;9.97;1.93;;;;;;;;;;5009947;28;20243;-70
2022/02/25 01:22:20;;;;;;;10.07;2.27;;;;;;;;;;5033216;28;20561;-69
2022/02/25 01:24:45;;;;;;;6.97;1.60;;;;;;;;;;5026525;28;20175;-69
2022/02/25 01:27:10;;;;;;;4.20;1.37;;;;;;;;;;5028866;28;20237;-69
2022/02/25 01:29:36;;;;;;;8.67;1.80;;;;;;;;;;5027616;28;20210;-69
2022/02/25 01:32:01;;;;;;;9.53;1.53;;;;;;;;;;5033592;28;20186;-70
2022/02/25 01:34:28;;;;;;;9.17;1.50;;;;;;;;;;5033582;28;20668;-70
2022/02/25 01:36:53;;;;;;;9.80;2.30;;;;;;;;;;5034159;28;20293;-69
2022/02/25 01:39:18;;;;;;;8.13;1.50;;;;;;;;;;5033987;28;20174;-69
2022/02/25 01:41:43;;;;;;;6.33;2.20;;;;;;;;;;5032065;28;20600;-68
2022/02/25 01:44:09;;;;;;;13.27;2.03;;;;;;;;;;5028702;28;20205;-68
2022/02/25 01:46:34;;;;;;;11.70;1.83;;;;;;;;;;5032749;28;20265;-68
2022/02/25 01:48:59;;;;;;;8.63;1.63;;;;;;;;;;5028674;28;20675;-68
2022/02/25 01:51:25;;;;;;;10.73;1.87;;;;;;;;;;5031074;28;20210;-68
2022/02/25 01:53:50;;;;;;;10.33;2.00;;;;;;;;;;5026860;28;20175;-68
2022/02/25 01:56:15;;;;;;;11.33;1.77;;;;;;;;;;5029813;28;20198;-68
2022/02/25 01:58:40;;;;;;;13.57;1.70;;;;;;;;;;5032285;28;20229;-69
2022/02/25 02:01:05;;;;;;;8.70;2.10;;;;;;;;;;5027144;28;20222;-68
2022/02/25 02:03:31;;;;;;;12.27;2.07;;;;;;;;;;5030094;28;20236;-68
2022/02/25 02:05:56;;;;;;;8.47;1.90;;;;;;;;;;5029411;28;20534;-68
2022/02/25 02:08:22;;;;;;;6.03;1.80;;;;;;;;;;5024929;28;20213;-68
2022/02/25 02:10:47;;;;;;;6.23;1.90;;;;;;;;;;5034241;28;20280;-69
2022/02/25 02:13:13;;;;;;;11.83;2.50;;;;;;;;;;5032219;28;20223;-68
2022/02/25 02:15:38;;;;;;;10.00;2.73;;;;;;;;;;5029641;28;20197;-71
2022/02/25 02:18:03;;;;;;;13.33;2.33;;;;;;;;;;5030160;28;20189;-71
2022/02/25 02:20:29;;;;;;;6.93;2.33;;;;;;;;;;5030644;28;20198;-71
2022/02/25 02:22:54;;;;;;;9.77;2.50;;;;;;;;;;5026214;28;20183;-68
2022/02/25 02:25:19;;;;;;;8.73;2.33;;;;;;;;;;5030985;28;20282;-68
2022/02/25 02:30:28;;;;;;;12.27;2.73;;;;;;;;;;5058275;22;20346;-68
2022/02/25 02:32:53;;;;;;;8.10;2.10;;;;;;;;;;5070636;28;20256;-67
2022/02/25 02:35:19;;;;;;;11.03;1.83;;;;;;;;;;5069312;28;20666;-69
2022/02/25 02:37:44;;;;;;;9.90;1.60;;;;;;;;;;5070289;28;20184;-68
2022/02/25 02:40:09;;;;;;;13.43;1.90;;;;;;;;;;5069588;28;20224;-69
2022/02/25 02:42:35;;;;;;;8.13;2.67;;;;;;;;;;5064443;28;20181;-69
2022/02/25 02:45:00;;;;;;;10.93;3.13;;;;;;;;;;5070342;28;20177;-68
2022/02/25 02:47:25;;;;;;;6.83;1.50;;;;;;;;;;5068648;28;20258;-68
2022/02/25 02:49:50;;;;;;;6.63;1.47;;;;;;;;;;5061364;28;20284;-69
2022/02/25 02:52:15;;;;;;;7.77;1.63;;;;;;;;;;5064743;28;20180;-68
2022/02/25 02:54:40;;;;;;;7.50;1.67;;;;;;;;;;5065409;28;20173;-67
2022/02/25 02:57:06;;;;;;;4.37;1.70;;;;;;;;;;5068051;28;20275;-68
2022/02/25 02:59:31;;;;;;;5.97;2.20;;;;;;;;;;5066427;28;20272;-67
2022/02/25 03:01:56;;;;;;;8.97;1.80;;;;;;;;;;5051749;28;20225;-68
2022/02/25 03:04:21;;;;;;;11.43;2.10;;;;;;;;;;5067949;28;20647;-67
2022/02/25 03:06:46;;;;;;;12.50;1.93;;;;;;;;;;5064435;28;20379;-68
2022/02/25 03:09:12;;;;;;;7.07;1.70;;;;;;;;;;5069425;28;20614;-68
2022/02/25 03:11:37;;;;;;;8.83;2.40;;;;;;;;;;5064934;28;20207;-68
2022/02/25 03:14:03;;;;;;;9.20;2.30;;;;;;;;;;5063514;28;20207;-68
2022/02/25 03:16:29;;;;;;;8.50;2.80;;;;;;;;;;5067563;28;20211;-68
2022/02/25 03:18:54;;;;;;;12.20;2.33;;;;;;;;;;5068833;28;20180;-68
2022/02/25 03:21:19;;;;;;;10.57;2.00;;;;;;;;;;5066583;28;20228;-68
2022/02/25 03:23:44;;;;;;;6.87;2.50;;;;;;;;;;5075346;28;20169;-69
2022/02/25 03:26:10;;;;;;;7.73;2.17;;;;;;;;;;5068152;28;20181;-68
2022/02/25 03:28:35;;;;;;;7.10;3.57;;;;;;;;;;5069266;28;20272;-69
2022/02/25 03:31:00;;;;;;;6.50;2.30;;;;;;;;;;5068793;28;20220;-68
2022/02/25 03:33:26;;;;;;;5.97;1.77;;;;;;;;;;5069614;28;20181;-68
2022/02/25 03:35:51;;;;;;;9.87;1.80;;;;;;;;;;5069726;28;20737;-68
2022/02/25 03:38:16;;;;;;;12.80;2.00;;;;;;;;;;5068337;28;20184;-68
2022/02/25 03:40:41;;;;;;;5.13;2.07;;;;;;;;;;5068721;28;20264;-68
2022/02/25 03:43:06;;;;;;;5.93;2.17;;;;;;;;;;5066236;28;20272;-68
2022/02/25 03:45:32;;;;;;;8.50;1.80;;;;;;;;;;5068174;28;20179;-68
2022/02/25 03:47:57;;;;;;;6.37;2.03;;;;;;;;;;5066758;28;20269;-68
2022/02/25 03:50:22;;;;;;;7.60;2.00;;;;;;;;;;5065021;28;20234;-68
2022/02/25 03:52:47;;;;;;;8.23;2.40;;;;;;;;;;5065433;28;20260;-68
2022/02/25 03:55:12;;;;;;;9.37;2.50;;;;;;;;;;5049187;28;20204;-68
2022/02/25 03:57:38;;;;;;;5.17;1.83;;;;;;;;;;5066838;28;20595;-68
2022/02/25 04:00:06;;;;;;;10.70;2.83;;;;;;;;;;5066789;28;20188;-68
2022/02/25 04:02:31;;;;;;;11.80;1.93;;;;;;;;;;5065058;28;20247;-68
2022/02/25 04:04:56;;;;;;;8.77;2.20;;;;;;;;;;5064879;28;20169;-68
2022/02/25 04:07:22;;;;;;;14.47;2.33;;;;;;;;;;5067246;28;20169;-68
2022/02/25 04:09:47;;;;;;;11.50;2.27;;;;;;;;;;5064295;28;20402;-68
2022/02/25 04:12:12;;;;;;;7.97;2.60;;;;;;;;;;5061612;28;20696;-67
2022/02/25 04:14:37;;;;;;;10.73;2.33;;;;;;;;;;5050054;28;20177;-68
2022/02/25 04:17:03;;;;;;;12.30;2.40;;;;;;;;;;5066537;28;20193;-68
2022/02/25 04:19:29;;;;;;;13.30;1.80;;;;;;;;;;5066318;28;20178;-68
2022/02/25 04:21:54;;;;;;;7.90;2.00;;;;;;;;;;5068983;28;20200;-69
2022/02/25 04:24:19;;;;;;;6.33;2.10;;;;;;;;;;5061926;28;20209;-68
2022/02/25 04:26:45;;;;;;;15.83;2.17;;;;;;;;;;5077278;28;20255;-69
2022/02/25 04:29:11;;;;;;;11.37;2.50;;;;;;;;;;5069338;28;20177;-68
2022/02/25 04:31:36;;;;;;;15.30;2.30;;;;;;;;;;5048338;28;20300;-68
2022/02/25 04:34:01;;;;;;;12.37;2.83;;;;;;;;;;5052830;28;20630;-68
2022/02/25 04:36:26;;;;;;;10.07;2.73;;;;;;;;;;5066875;28;20645;-67
2022/02/25 04:38:52;;;;;;;10.97;2.33;;;;;;;;;;5062823;28;20165;-68
2022/02/25 04:41:17;;;;;;;11.10;2.97;;;;;;;;;;5068876;28;20292;-68
2022/02/25 04:43:43;;;;;;;9.87;2.10;;;;;;;;;;5062158;28;20232;-68
2022/02/25 04:46:15;;;;;;;9.77;2.23;;;;;;;;;;5067664;28;20184;-68
2022/02/25 04:48:40;;;;;;;7.73;1.90;;;;;;;;;;5068930;28;20177;-69
2022/02/25 04:51:06;;;;;;;10.13;2.43;;;;;;;;;;5068946;28;20300;-68
2022/02/25 04:53:31;;;;;;;19.37;2.73;;;;;;;;;;5065819;28;20180;-68
2022/02/25 04:55:56;;;;;;;7.27;2.40;;;;;;;;;;5068598;28;20200;-68
2022/02/25 04:58:21;;;;;;;8.20;2.47;;;;;;;;;;5071985;28;20654;-67
2022/02/25 05:00:46;;;;;;;9.10;2.33;;;;;;;;;;5072629;28;20189;-68
2022/02/25 05:03:12;;;;;;;15.17;2.17;;;;;;;;;;5068670;28;20185;-68
2022/02/25 05:05:37;;;;;;;12.60;2.90;;;;;;;;;;5065709;28;20238;-68
2022/02/25 05:08:02;;;;;;;10.33;2.90;;;;;;;;;;5068447;28;20209;-68
2022/02/25 05:10:28;;;;;;;12.40;2.37;;;;;;;;;;5065521;28;20203;-69
2022/02/25 05:12:53;;;;;;;14.17;3.43;;;;;;;;;;5068435;28;20596;-68
2022/02/25 05:20:47;;;;;;;9.43;2.40;;;;;;;;;;5064590;28;20587;-69
2022/02/25 05:23:12;;;;;;;13.90;2.87;;;;;;;;;;5068100;28;20177;-69
2022/02/25 05:25:39;;;;;;;11.87;2.53;;;;;;;;;;5067279;28;20264;-68
2022/02/25 05:28:04;;;;;;;7.30;2.20;;;;;;;;;;5068538;28;20211;-69
2022/02/25 05:30:29;;;;;;;9.80;2.90;;;;;;;;;;5072186;28;20317;-69
2022/02/25 05:32:55;;;;;;;11.30;2.40;;;;;;;;;;5072119;28;20635;-68
2022/02/25 05:35:20;;;;;;;11.73;2.67;;;;;;;;;;5071496;28;20209;-69
2022/02/25 05:37:46;;;;;;;11.83;2.73;;;;;;;;;;5070050;28;20196;-68
2022/02/25 05:40:12;;;;;;;11.93;2.60;;;;;;;;;;5071775;28;20226;-68
2022/02/25 05:42:38;;;;;;;11.83;3.23;;;;;;;;;;5065688;28;20702;-69
2022/02/25 05:45:04;;;;;;;16.60;2.40;;;;;;;;;;5071773;28;20187;-69
2022/02/25 05:47:29;;;;;;;15.40;3.37;;;;;;;;;;5064588;28;20185;-69
2022/02/25 05:49:54;;;;;;;11.17;3.40;;;;;;;;;;5072181;28;20197;-69
2022/02/25 05:52:20;;;;;;;10.93;3.00;;;;;;;;;;5071122;28;20679;-68
2022/02/25 05:54:45;;;;;;;12.60;3.97;;;;;;;;;;5067910;28;20173;-69
2022/02/25 05:57:11;;;;;;;18.90;3.00;;;;;;;;;;5068894;28;20277;-69
2022/02/25 05:59:36;;;;;;;10.50;2.03;;;;;;;;;;5067460;28;20662;-69
2022/02/25 06:02:02;;;;;;;11.90;3.77;;;;;;;;;;5061940;28;20268;-69
2022/02/25 06:04:27;;;;;;;12.60;2.87;;;;;;;;;;5059989;28;20310;-69
2022/02/25 06:06:52;;;;;;;14.10;3.50;;;;;;;;;;5067402;28;20268;-68
2022/02/25 06:09:17;;;;;;;16.33;2.87;;;;;;;;;;5061361;28;20360;-69
2022/02/25 06:11:42;;;;;;;18.67;3.30;;;;;;;;;;5063729;28;20576;-69
2022/02/25 06:14:08;;;;;;;15.53;2.43;;;;;;;;;;5075807;28;20181;-69
2022/02/25 06:16:33;;;;;;;14.70;3.10;;;;;;;;;;5068799;28;20285;-69
2022/02/25 06:18:58;;;;;;;11.77;2.80;;;;;;;;;;5066391;28;20223;-69
2022/02/25 06:21:23;;;;;;;22.90;4.53;;;;;;;;;;5068749;28;20204;-68
2022/02/25 06:23:48;;;;;;;15.53;2.70;;;;;;;;;;5066163;28;20177;-69
2022/02/25 06:26:14;;;;;;;16.03;4.60;;;;;;;;;;5069363;28;20242;-68
2022/02/25 06:28:39;;;;;;;13.20;2.87;;;;;;;;;;5064709;28;20198;-69
2022/02/25 06:31:05;;;;;;;10.30;2.77;;;;;;;;;;5071047;28;20228;-69
2022/02/25 06:33:30;;;;;;;17.30;4.40;;;;;;;;;;5068394;28;20572;-68
2022/02/25 06:35:55;;;;;;;11.50;3.30;;;;;;;;;;5068813;28;20741;-69
2022/02/25 06:38:21;;;;;;;13.00;3.30;;;;;;;;;;5063952;28;20181;-68
2022/02/25 06:40:46;;;;;;;10.90;3.07;;;;;;;;;;5064238;28;20235;-69
2022/02/25 06:43:11;;;;;;;15.37;2.87;;;;;;;;;;5068886;28;20187;-69
2022/02/25 06:45:36;;;;;;;14.60;5.70;;;;;;;;;;5069733;28;20257;-69
2022/02/25 06:48:01;;;;;;;13.77;3.53;;;;;;;;;;5071191;28;20188;-69
2022/02/25 06:50:27;;;;;;;13.87;2.57;;;;;;;;;;5070900;28;20592;-69
2022/02/25 06:52:52;;;;;;;8.67;2.83;;;;;;;;;;5070027;28;20180;-68
2022/02/25 06:55:17;;;;;;;6.27;1.70;;;;;;;;;;5066909;28;20181;-69
2022/02/25 06:57:43;;;;;;;18.00;3.40;;;;;;;;;;5070854;28;20221;-69
2022/02/25 07:00:11;;;;;;;15.53;2.50;;;;;;;;;;5071106;28;20228;-68
2022/02/25 07:02:36;;;;;;;10.40;2.27;;;;;;;;;;5068432;28;20180;-69
2022/02/25 07:05:01;;;;;;;15.67;2.50;;;;;;;;;;5066292;28;20184;-68
2022/02/25 07:07:26;;;;;;;11.70;2.43;;;;;;;;;;5069584;28;20245;-67
2022/02/25 07:09:52;;;;;;;11.73;2.73;;;;;;;;;;5067064;28;20208;-67
2022/02/25 07:12:19;;;;;;;13.80;3.47;;;;;;;;;;5067640;28;20543;-67
2022/02/25 07:14:44;;;;;;;11.27;3.17;;;;;;;;;;5048460;28;20341;-67
2022/02/25 07:17:09;;;;;;;8.23;2.80;;;;;;;;;;5072360;28;20726;-66
2022/02/25 07:19:34;;;;;;;8.50;3.00;;;;;;;;;;5074415;28;20203;-68
2022/02/25 07:21:59;;;;;;;14.93;3.33;;;;;;;;;;5066759;28;20165;-67
2022/02/25 07:24:25;;;;;;;10.83;2.17;;;;;;;;;;5068510;28;20263;-68
2022/02/25 07:26:50;;;;;;;9.50;2.43;;;;;;;;;;5067932;28;20199;-67
2022/02/25 07:29:15;;;;;;;12.20;2.37;;;;;;;;;;5068529;28;20246;-67
2022/02/25 07:31:40;;;;;;;13.43;2.57;;;;;;;;;;5065868;28;20213;-67
2022/02/25 07:34:06;;;;;;;9.43;2.67;;;;;;;;;;5069743;28;20227;-67
2022/02/25 07:36:32;;;;;;;11.93;2.77;;;;;;;;;;5060443;28;20231;-67
2022/02/25 07:38:57;;;;;;;11.13;1.90;;;;;;;;;;5065647;28;20208;-67
2022/02/25 07:41:22;;;;;;;9.53;2.27;;;;;;;;;;5064238;28;20697;-68
2022/02/25 07:43:47;;;;;;;9.83;2.53;;;;;;;;;;5067363;28;20272;-68
2022/02/25 07:46:13;;;;;;;14.40;2.97;;;;;;;;;;5066387;28;20223;-67
2022/02/25 07:48:38;;;;;;;11.07;3.83;;;;;;;;;;5042529;28;20281;-67
2022/02/25 07:51:03;;;;;;;11.17;2.50;;;;;;;;;;5066787;28;20204;-68
2022/02/25 07:53:30;;;;;;;13.97;3.20;;;;;;;;;;5068977;28;20196;-68
2022/02/25 07:55:56;;;;;;;13.40;2.57;;;;;;;;;;5065313;28;20199;-68
2022/02/25 07:58:21;;;;;;;16.87;4.03;;;;;;;;;;5067937;28;20181;-67
2022/02/25 08:00:46;;;;;;;14.07;3.63;;;;;;;;;;5061262;28;20469;-66
2022/02/25 08:03:11;;;;;;;15.97;2.97;;;;;;;;;;5058692;28;20172;-68
2022/02/25 08:05:37;;;;;;;18.27;4.37;;;;;;;;;;5066787;28;20557;-68
2022/02/25 08:08:04;;;;;;;13.27;3.30;;;;;;;;;;5065208;28;20740;-68
2022/02/25 08:10:29;;;;;;;14.33;3.50;;;;;;;;;;5058943;28;20200;-67
2022/02/25 08:12:54;;;;;;;8.97;2.37;;;;;;;;;;5069325;28;20607;-68
2022/02/25 08:15:20;;;;;;;7.77;3.20;;;;;;;;;;5070581;28;20169;-68
2022/02/25 08:17:45;;;;;;;13.43;2.50;;;;;;;;;;5047258;28;20169;-67
2022/02/25 08:20:11;;;;;;;10.30;2.80;;;;;;;;;;5068501;28;20547;-68
2022/02/25 08:22:36;;;;;;;16.87;3.30;;;;;;;;;;5070259;28;20615;-68
2022/02/25 08:25:02;;;;;;;17.57;3.87;;;;;;;;;;5058753;28;20177;-68
2022/02/25 08:27:27;;;;;;;11.27;2.37;;;;;;;;;;5063130;28;20272;-68
2022/02/25 08:32:20;;;;;;;12.23;2.73;;;;;;;;;;5065639;28;20637;-69
2022/02/25 08:34:45;;;;;;;15.97;2.50;;;;;;;;;;5067615;28;20176;-69
2022/02/25 08:37:11;;;;;;;11.53;2.67;;;;;;;;;;5068589;28;20200;-70
2022/02/25 08:39:36;;;;;;;7.83;3.07;;;;;;;;;;5069070;28;20184;-69
2022/02/25 08:42:01;;;;;;;14.17;2.63;;;;;;;;;;5088816;28;20237;-69
2022/02/25 08:44:27;;;;;;;19.40;3.10;;;;;;;;;;5088261;28;20191;-69
2022/02/25 08:46:52;;;;;;;7.80;3.23;;;;;;;;;;5088808;28;20184;-69
2022/02/25 08:49:18;;;;;;;11.43;2.87;;;;;;;;;;5080742;28;20298;-70
2022/02/25 08:51:43;;;;;;;14.93;4.00;;;;;;;;;;5068077;28;20300;-70
2022/02/25 08:54:10;;;;;;;12.50;2.97;;;;;;;;;;5086034;28;20176;-69
2022/02/25 08:56:36;;;;;;;12.23;3.07;;;;;;;;;;5089225;28;20199;-70
2022/02/25 08:59:01;;;;;;;16.40;3.80;;;;;;;;;;5087559;28;20192;-69
2022/02/25 09:01:27;;;;;;;14.97;3.60;;;;;;;;;;5087876;28;20261;-70
2022/02/25 09:03:52;;;;;;;12.87;2.53;;;;;;;;;;5087179;28;20169;-70
2022/02/25 09:06:18;;;;;;;12.20;2.80;;;;;;;;;;5089114;28;20266;-70
2022/02/25 09:08:43;;;;;;;9.60;2.53;;;;;;;;;;5090020;28;20220;-70
2022/02/25 09:11:08;;;;;;;8.27;2.10;;;;;;;;;;5072472;28;20773;-70
2022/02/25 09:13:33;;;;;;;10.67;3.67;;;;;;;;;;5088965;28;20241;-69
2022/02/25 09:15:58;;;;;;;8.73;2.13;;;;;;;;;;5087781;28;20200;-70
2022/02/25 09:18:24;;;;;;;10.90;2.40;;;;;;;;;;5087889;28;20200;-69
2022/02/25 09:20:50;;;;;;;11.03;2.90;;;;;;;;;;5087830;28;20202;-68
2022/02/25 09:23:15;;;;;;;9.97;2.53;;;;;;;;;;5088031;28;20176;-70
2022/02/25 09:25:41;;;;;;;11.70;3.43;;;;;;;;;;5082684;28;20180;-70
2022/02/25 09:28:06;;;;;;;12.30;3.53;;;;;;;;;;5085492;28;20290;-70
2022/02/25 09:30:32;;;;;;;14.23;2.80;;;;;;;;;;5082328;28;20645;-69
2022/02/25 09:32:57;;;;;;;14.57;3.40;;;;;;;;;;5088735;28;20182;-69
2022/02/25 09:35:22;;;;;;;14.43;4.77;;;;;;;;;;5087439;28;20176;-70
2022/02/25 09:37:48;;;;;;;12.53;3.53;;;;;;;;;;5087338;28;20187;-70
2022/02/25 09:40:14;;;;;;;9.03;2.67;;;;;;;;;;5090206;28;20692;-70
2022/02/25 09:42:41;;;;;;;10.80;2.33;;;;;;;;;;5088188;28;20263;-70
2022/02/25 09:45:07;;;;;;;14.00;2.93;;;;;;;;;;5092032;28;20172;-70
2022/02/25 09:47:36;;;;;;;10.73;3.00;;;;;;;;;;5088366;28;20180;-70
2022/02/25 09:50:03;;;;;;;13.40;3.60;;;;;;;;;;5089409;28;20187;-70
2022/02/25 09:52:28;;;;;;;9.43;2.73;;;;;;;;;;5085740;28;20802;-69
2022/02/25 09:54:54;;;;;;;9.73;2.73;;;;;;;;;;5086213;28;20176;-70
2022/02/25 09:57:19;;;;;;;19.90;3.37;;;;;;;;;;5092499;28;20200;-70
2022/02/25 09:59:44;;;;;;;11.13;2.53;;;;;;;;;;5075418;28;20718;-70
2022/02/25 10:02:09;;;;;;;15.60;3.43;;;;;;;;;;5091550;28;20182;-68
2022/02/25 10:04:35;;;;;;;8.57;2.53;;;;;;;;;;5091857;28;20179;-69
2022/02/25 10:07:00;;;;;;;14.07;3.00;;;;;;;;;;5089381;28;20176;-70
2022/02/25 10:09:32;;;;;;;15.50;4.77;;;;;;;;;;5090971;28;20184;-69
2022/02/25 10:11:58;;;;;;;20.43;2.20;;;;;;;;;;5085586;28;20575;-70
2022/02/25 10:14:28;;;;;;;10.57;2.40;;;;;;;;;;5090523;28;20186;-69
2022/02/25 10:17:11;;;;;;;10.40;2.30;;;;;;;;;;5091856;28;20227;-69
2022/02/25 10:19:36;;;;;;;14.33;2.80;;;;;;;;;;5088142;28;20172;-69
2022/02/25 10:22:20;;;;;;;9.00;2.43;;;;;;;;;;5091755;28;20188;-70
2022/02/25 10:24:47;;;;;;;12.10;2.37;;;;;;;;;;5088153;28;20200;-69
2022/02/25 10:27:16;;;;;;;12.10;2.43;;;;;;;;;;5085943;28;20193;-68
2022/02/25 10:29:55;;;;;;;13.20;2.37;;;;;;;;;;5088950;28;20191;-69
2022/02/25 10:32:29;;;;;;;7.80;2.30;;;;;;;;;;5089980;28;20176;-70
2022/02/25 10:34:55;;;;;;;9.57;2.37;;;;;;;;;;5088780;28;20557;-70
2022/02/25 10:37:20;;;;;;;11.67;2.20;;;;;;;;;;5091788;28;20204;-69
2022/02/25 10:39:46;;;;;;;14.67;2.90;;;;;;;;;;5069213;28;20183;-70
2022/02/25 10:42:15;;;;;;;11.53;2.10;;;;;;;;;;5089106;28;20187;-70
2022/02/25 10:44:49;;;;;;;13.57;3.40;;;;;;;;;;5091304;28;20176;-69
2022/02/25 10:47:22;;;;;;;11.03;2.93;;;;;;;;;;5091466;28;20184;-70
2022/02/25 10:49:49;;;;;;;14.23;3.67;;;;;;;;;;5092183;28;20656;-70
2022/02/25 10:52:18;;;;;;;11.63;2.70;;;;;;;;;;5091341;28;20220;-69
2022/02/25 10:54:43;;;;;;;14.20;2.27;;;;;;;;;;5083480;28;20188;-69
2022/02/25 10:57:15;;;;;;;8.90;2.40;;;;;;;;;;5085363;28;20231;-69
2022/02/25 10:59:43;;;;;;;12.00;2.73;;;;;;;;;;5092080;28;20176;-70
2022/02/25 11:02:41;;;;;;;13.27;2.43;;;;;;;;;;5091394;28;20177;-70
2022/02/25 11:05:10;;;;;;;11.90;2.63;;;;;;;;;;5064366;28;20188;-69
2022/02/25 11:07:36;;;;;;;11.67;3.10;;;;;;;;;;5090020;28;20525;-70
2022/02/25 11:10:02;;;;;;;5.93;2.37;;;;;;;;;;5087069;28;20180;-70
2022/02/25 11:12:30;;;;;;;7.57;2.90;;;;;;;;;;5089895;28;20665;-70
2022/02/25 11:14:56;;;;;;;13.00;3.03;;;;;;;;;;5091041;28;20199;-70
2022/02/25 11:17:22;;;;;;;14.03;3.40;;;;;;;;;;5090555;28;20673;-70
2022/02/25 11:19:48;;;;;;;11.50;2.73;;;;;;;;;;5092242;28;20638;-69
2022/02/25 11:22:15;;;;;;;14.03;2.97;;;;;;;;;;5071867;28;20192;-70
2022/02/25 11:24:40;;;;;;;17.30;2.90;;;;;;;;;;5088338;28;20181;-70
2022/02/25 11:27:06;;;;;;;14.97;2.90;;;;;;;;;;5090777;28;20233;-70
2022/02/25 11:29:34;;;;;;;12.10;3.17;;;;;;;;;;5090946;28;20696;-70
2022/02/25 11:32:00;;;;;;;10.67;2.60;;;;;;;;;;5091572;28;20250;-70
2022/02/25 11:34:26;;;;;;;13.63;3.30;;;;;;;;;;5087378;28;20195;-69
2022/02/25 11:36:51;;;;;;;12.03;2.60;;;;;;;;;;5088695;28;20603;-69
2022/02/25 11:39:21;;;;;;;9.83;2.53;;;;;;;;;;5089164;28;20176;-70
2022/02/25 11:41:50;;;;;;;7.83;2.00;;;;;;;;;;5089322;28;20275;-69
2022/02/25 11:44:16;;;;;;;11.80;3.07;;;;;;;;;;5088617;28;20184;-69
2022/02/25 11:46:48;;;;;;;13.60;2.30;;;;;;;;;;5088141;28;20392;-70
2022/02/25 11:49:19;;;;;;;5.40;1.57;;;;;;;;;;5089099;28;20271;-69
2022/02/25 11:51:50;;;;;;;8.20;2.30;;;;;;;;;;5087912;28;20278;-69
2022/02/25 11:54:26;;;;;;;8.67;3.20;;;;;;;;;;5070773;28;20191;-70
2022/02/25 11:57:03;;;;;;;24.63;3.60;;;;;;;;;;5074696;28;20212;-70
2022/02/25 11:59:31;;;;;;;10.50;2.83;;;;;;;;;;5090220;28;20179;-70
2022/02/25 12:02:08;;;;;;;13.83;2.30;;;;;;;;;;5086696;28;20197;-71
2022/02/25 12:04:36;;;;;;;16.27;2.50;;;;;;;;;;5088585;28;20175;-70
2022/02/25 12:07:03;;;;;;;10.63;2.57;;;;;;;;;;5088409;28;20198;-71
2022/02/25 12:09:37;;;;;;;8.37;2.40;;;;;;;;;;5087049;28;20188;-70
2022/02/25 12:12:23;;;;;;;10.20;2.50;;;;;;;;;;5087119;28;20203;-70
2022/02/25 12:15:07;;;;;;;15.60;2.77;;;;;;;;;;5082949;28;20664;-70
2022/02/25 12:17:45;;;;;;;8.63;4.00;;;;;;;;;;5085578;28;20238;-70
2022/02/25 12:20:11;;;;;;;13.93;2.93;;;;;;;;;;5087871;28;20202;-70
2022/02/25 12:22:54;;;;;;;15.37;3.47;;;;;;;;;;5090805;28;20168;-71
2022/02/25 12:25:38;;;;;;;15.67;4.10;;;;;;;;;;5090822;28;20183;-71
2022/02/25 12:28:31;;;;;;;14.97;4.17;;;;;;;;;;5089055;28;20229;-70
2022/02/25 12:31:02;;;;;;;12.83;2.80;;;;;;;;;;5080379;28;20280;-70
2022/02/25 12:33:43;;;;;;;10.33;3.27;;;;;;;;;;5089791;28;20172;-70
2022/02/25 12:36:26;;;;;;;10.43;3.47;;;;;;;;;;5089460;28;20212;-71
2022/02/25 12:38:59;;;;;;;14.87;3.63;;;;;;;;;;5089103;28;20250;-70
2022/02/25 12:41:26;;;;;;;17.13;3.50;;;;;;;;;;5089025;28;20685;-69
2022/02/25 12:43:58;;;;;;;18.83;3.57;;;;;;;;;;5087484;28;20172;-70
2022/02/25 12:46:24;;;;;;;11.47;3.17;;;;;;;;;;5085502;28;20557;-70
2022/02/25 12:48:51;;;;;;;15.37;3.63;;;;;;;;;;5090178;28;20180;-70
2022/02/25 12:51:16;;;;;;;11.57;3.00;;;;;;;;;;5089619;28;20212;-70
2022/02/25 12:53:49;;;;;;;22.67;4.10;;;;;;;;;;5089414;28;20176;-70
2022/02/25 12:56:16;;;;;;;13.07;3.50;;;;;;;;;;5088962;28;20195;-70
2022/02/25 12:58:42;;;;;;;19.60;4.67;;;;;;;;;;5085301;28;20187;-70
2022/02/25 13:01:07;;;;;;;14.60;3.33;;;;;;;;;;5087808;28;20196;-70
2022/02/25 13:03:32;;;;;;;12.20;2.80;;;;;;;;;;5087326;28;20204;-70
2022/02/25 13:05:57;;;;;;;21.23;3.67;;;;;;;;;;5087319;28;20176;-70
2022/02/25 13:08:31;;;;;;;12.37;3.27;;;;;;;;;;5084467;28;20493;-70
2022/02/25 13:11:00;;;;;;;11.13;2.50;;;;;;;;;;5067184;28;20266;-69
2022/02/25 13:13:26;;;;;;;7.67;2.30;;;;;;;;;;5085284;28;20192;-70
2022/02/25 13:16:04;;;;;;;14.30;2.80;;;;;;;;;;5088215;28;20211;-70
2022/02/25 13:18:29;;;;;;;11.03;3.17;;;;;;;;;;5091641;28;20176;-70
2022/02/25 13:21:02;;;;;;;9.77;2.00;;;;;;;;;;5090858;28;20615;-69
2022/02/25 13:23:28;;;;;;;15.63;3.40;;;;;;;;;;5092656;28;20696;-68
2022/02/25 13:25:57;;;;;;;11.23;2.70;;;;;;;;;;5094351;28;20271;-69
2022/02/25 13:28:23;;;;;;;8.37;2.87;;;;;;;;;;5074951;28;20187;-69
2022/02/25 13:30:49;;;;;;;11.13;2.67;;;;;;;;;;5092226;28;20211;-69
2022/02/25 13:33:16;;;;;;;10.23;3.17;;;;;;;;;;5091187;28;20180;-68
2022/02/25 13:35:43;;;;;;;17.23;3.30;;;;;;;;;;5090200;28;20682;-69
2022/02/25 13:38:21;;;;;;;10.10;2.87;;;;;;;;;;5091731;28;20207;-68
2022/02/25 13:40:54;;;;;;;11.67;3.67;;;;;;;;;;5084938;28;20192;-69
2022/02/25 13:43:27;;;;;;;14.07;2.50;;;;;;;;;;5091927;28;20595;-69
2022/02/25 13:45:54;;;;;;;17.90;3.40;;;;;;;;;;5071418;28;20207;-69
2022/02/25 13:53:58;;;;;;;9.90;2.27;;;;;;;;;;5090443;28;20211;-69
2022/02/25 13:56:37;;;;;;;13.13;2.37;;;;;;;;;;5089129;28;20212;-69
2022/02/25 13:59:04;;;;;;;16.33;2.83;;;;;;;;;;5070701;28;20272;-68
2022/02/25 14:01:29;;;;;;;18.43;3.67;;;;;;;;;;5085658;28;20704;-71
2022/02/25 14:03:55;;;;;;;7.00;2.00;;;;;;;;;;5090799;28;20184;-70
2022/02/25 14:06:27;;;;;;;12.53;3.13;;;;;;;;;;5093352;28;20344;-70
2022/02/25 14:08:53;;;;;;;6.27;1.60;;;;;;;;;;5089115;28;20187;-71
2022/02/25 14:11:33;;;;;;;10.33;2.83;;;;;;;;;;5073483;28;20228;-71
2022/02/25 14:13:58;;;;;;;7.63;1.40;;;;;;;;;;5089180;28;20180;-70
2022/02/25 14:16:24;;;;;;;3.57;1.23;;;;;;;;;;5090270;28;20199;-70
2022/02/25 14:18:49;;;;;;;11.77;1.73;;;;;;;;;;5088329;28;20180;-70
2022/02/25 14:21:25;;;;;;;4.70;1.10;;;;;;;;;;5089608;28;20197;-71
2022/02/25 14:23:50;;;;;;;5.87;1.40;;;;;;;;;;5091592;28;20179;-68
2022/02/25 14:26:24;;;;;;;10.27;1.70;;;;;;;;;;5090377;28;20176;-70
2022/02/25 14:28:49;;;;;;;8.20;1.83;;;;;;;;;;5085490;28;20184;-70
2022/02/25 14:31:22;;;;;;;8.27;1.80;;;;;;;;;;5089881;28;20212;-71
2022/02/25 14:33:48;;;;;;;8.93;1.80;;;;;;;;;;5091822;28;20180;-70
2022/02/25 14:36:13;;;;;;;10.70;2.90;;;;;;;;;;5091399;28;20210;-69
2022/02/25 14:38:40;;;;;;;10.63;3.07;;;;;;;;;;5088385;28;20173;-70
2022/02/25 14:41:05;;;;;;;9.40;1.80;;;;;;;;;;5067801;28;20204;-71
2022/02/25 14:43:31;;;;;;;8.67;2.13;;;;;;;;;;5091126;28;20241;-70
2022/02/25 14:45:56;;;;;;;8.13;2.47;;;;;;;;;;5092962;28;20176;-70
2022/02/25 14:48:22;;;;;;;8.90;2.07;;;;;;;;;;5094440;28;20176;-70
2022/02/25 14:50:47;;;;;;;9.50;2.67;;;;;;;;;;5089770;28;20575;-69